sensor_id;sensor_type;location;lat;lon;timestamp;pressure;altitude;pressure_sealevel;temperature;humidity
59650;BME280;46162;57.568;25.814;2023-10-31T00:01:32;99981.84;;;2.87;100.00
59650;BME280;46162;57.568;25.814;2023-10-31T00:04:01;99983.06;;;2.94;100.00
59650;BME280;46162;57.568;25.814;2023-10-31T00:06:30;99985.81;;;2.82;100.00
59650;BME280;46162;57.568;25.814;2023-10-31T00:09:00;99977.22;;;2.78;100.00
59650;BME280;46162;57.568;25.814;2023-10-31T00:11:28;99987.78;;;2.91;100.00
59650;BME280;46162;57.568;25.814;2023-10-31T00:13:57;99976.88;;;2.83;100.00
59650;BME280;46162;57.568;25.814;2023-10-31T00:16:25;99980.03;;;2.88;100.00
59650;BME280;46162;57.568;25.814;2023-10-31T00:18:55;99977.97;;;2.91;100.00
59650;BME280;46162;57.568;25.814;2023-10-31T00:21:24;99981.38;;;2.82;100.00
59650;BME280;46162;57.568;25.814;2023-10-31T00:23:52;99972.16;;;2.97;100.00
59650;BME280;46162;57.568;25.814;2023-10-31T00:26:22;99975.41;;;3.01;100.00
59650;BME280;46162;57.568;25.814;2023-10-31T00:28:52;99984.38;;;3.11;100.00
59650;BME280;46162;57.568;25.814;2023-10-31T00:31:21;99987.66;;;3.04;100.00
59650;BME280;46162;57.568;25.814;2023-10-31T00:33:51;99984.03;;;3.16;100.00
59650;BME280;46162;57.568;25.814;2023-10-31T00:36:19;99982.19;;;3.16;100.00
59650;BME280;46162;57.568;25.814;2023-10-31T00:38:48;99983.66;;;3.20;100.00
59650;BME280;46162;57.568;25.814;2023-10-31T00:41:16;99981.63;;;3.13;100.00
59650;BME280;46162;57.568;25.814;2023-10-31T00:43:47;99980.41;;;3.06;100.00
59650;BME280;46162;57.568;25.814;2023-10-31T00:46:15;99979.81;;;3.02;100.00
59650;BME280;46162;57.568;25.814;2023-10-31T00:48:44;99980.41;;;3.06;100.00
59650;BME280;46162;57.568;25.814;2023-10-31T00:51:14;99977.72;;;3.28;100.00
59650;BME280;46162;57.568;25.814;2023-10-31T00:53:42;99980.06;;;3.21;100.00
59650;BME280;46162;57.568;25.814;2023-10-31T00:56:11;99985.59;;;3.18;100.00
59650;BME280;46162;57.568;25.814;2023-10-31T00:58:40;99978.84;;;3.14;100.00
59650;BME280;46162;57.568;25.814;2023-10-31T01:01:12;99976.66;;;3.19;100.00
59650;BME280;46162;57.568;25.814;2023-10-31T01:03:42;99971.78;;;3.25;100.00
59650;BME280;46162;57.568;25.814;2023-10-31T01:06:10;99966.19;;;3.16;100.00
59650;BME280;46162;57.568;25.814;2023-10-31T01:08:39;99967.78;;;3.19;100.00
59650;BME280;46162;57.568;25.814;2023-10-31T01:11:08;99968.38;;;3.11;100.00
59650;BME280;46162;57.568;25.814;2023-10-31T01:13:37;99970.84;;;3.14;100.00
59650;BME280;46162;57.568;25.814;2023-10-31T01:16:06;99966.19;;;3.16;100.00
59650;BME280;46162;57.568;25.814;2023-10-31T01:18:37;99969.84;;;3.27;100.00
59650;BME280;46162;57.568;25.814;2023-10-31T01:21:06;99964.03;;;3.21;100.00
59650;BME280;46162;57.568;25.814;2023-10-31T01:23:36;99977.72;;;3.28;100.00
59650;BME280;46162;57.568;25.814;2023-10-31T01:26:04;99972.03;;;3.21;100.00
59650;BME280;46162;57.568;25.814;2023-10-31T01:28:33;99973.00;;;3.20;100.00
59650;BME280;46162;57.568;25.814;2023-10-31T01:31:02;99982.09;;;3.18;100.00
59650;BME280;46162;57.568;25.814;2023-10-31T01:33:31;99980.28;;;3.07;100.00
59650;BME280;46162;57.568;25.814;2023-10-31T01:36:01;99976.88;;;2.94;100.00
59650;BME280;46162;57.568;25.814;2023-10-31T01:38:30;99974.47;;;3.02;100.00
59650;BME280;46162;57.568;25.814;2023-10-31T01:40:59;99972.75;;;3.01;100.00
59650;BME280;46162;57.568;25.814;2023-10-31T01:43:31;99962.31;;;2.87;100.00
59650;BME280;46162;57.568;25.814;2023-10-31T01:46:00;99963.56;;;2.83;100.00
59650;BME280;46162;57.568;25.814;2023-10-31T01:48:30;99962.22;;;2.77;100.00
59650;BME280;46162;57.568;25.814;2023-10-31T01:51:02;99963.28;;;2.74;100.00
59650;BME280;46162;57.568;25.814;2023-10-31T01:53:34;99961.69;;;2.61;100.00
59650;BME280;46162;57.568;25.814;2023-10-31T01:56:05;99967.16;;;3.04;100.00
59650;BME280;46162;57.568;25.814;2023-10-31T01:58:35;99967.53;;;2.88;100.00
59650;BME280;46162;57.568;25.814;2023-10-31T02:01:05;99973.72;;;2.77;100.00
59650;BME280;46162;57.568;25.814;2023-10-31T02:03:34;99973.00;;;2.75;100.00
59650;BME280;46162;57.568;25.814;2023-10-31T02:06:05;99970.31;;;2.87;100.00
59650;BME280;46162;57.568;25.814;2023-10-31T02:08:34;99973.72;;;2.77;100.00
59650;BME280;46162;57.568;25.814;2023-10-31T02:11:03;99969.00;;;2.70;100.00
59650;BME280;46162;57.568;25.814;2023-10-31T02:13:32;99959.91;;;2.72;100.00
59650;BME280;46162;57.568;25.814;2023-10-31T02:16:01;99961.84;;;2.82;100.00
59650;BME280;46162;57.568;25.814;2023-10-31T02:18:30;99962.78;;;2.69;100.00
59650;BME280;46162;57.568;25.814;2023-10-31T02:20:59;99964.53;;;2.93;100.00
59650;BME280;46162;57.568;25.814;2023-10-31T02:23:29;99965.97;;;2.86;100.00
59650;BME280;46162;57.568;25.814;2023-10-31T02:25:58;99973.25;;;3.17;100.00
59650;BME280;46162;57.568;25.814;2023-10-31T02:28:26;99968.38;;;2.89;100.00
59650;BME280;46162;57.568;25.814;2023-10-31T02:30:56;99979.66;;;2.81;100.00
59650;BME280;46162;57.568;25.814;2023-10-31T02:33:24;99977.59;;;2.62;100.00
59650;BME280;46162;57.568;25.814;2023-10-31T02:35:53;99971.72;;;2.46;100.00
59650;BME280;46162;57.568;25.814;2023-10-31T02:38:22;99979.81;;;2.44;100.00
59650;BME280;46162;57.568;25.814;2023-10-31T02:40:52;99978.16;;;2.54;100.00
59650;BME280;46162;57.568;25.814;2023-10-31T02:43:20;99968.50;;;2.65;100.00
59650;BME280;46162;57.568;25.814;2023-10-31T02:45:49;99974.91;;;2.73;100.00
59650;BME280;46162;57.568;25.814;2023-10-31T02:48:18;99961.50;;;2.75;100.00
59650;BME280;46162;57.568;25.814;2023-10-31T02:50:47;99964.03;;;2.65;100.00
59650;BME280;46162;57.568;25.814;2023-10-31T02:53:17;99958.41;;;2.57;100.00
59650;BME280;46162;57.568;25.814;2023-10-31T02:55:46;99959.63;;;2.53;100.00
59650;BME280;46162;57.568;25.814;2023-10-31T02:58:16;99962.69;;;2.24;100.00
59650;BME280;46162;57.568;25.814;2023-10-31T03:00:45;99961.16;;;2.33;100.00
59650;BME280;46162;57.568;25.814;2023-10-31T03:03:14;99953.38;;;2.19;100.00
59650;BME280;46162;57.568;25.814;2023-10-31T03:05:44;99952.44;;;2.31;100.00
59650;BME280;46162;57.568;25.814;2023-10-31T03:08:12;99958.81;;;2.17;100.00
59650;BME280;46162;57.568;25.814;2023-10-31T03:10:42;99963.13;;;2.07;100.00
59650;BME280;46162;57.568;25.814;2023-10-31T03:13:11;99962.63;;;2.02;100.00
59650;BME280;46162;57.568;25.814;2023-10-31T03:15:42;99964.03;;;1.94;100.00
59650;BME280;46162;57.568;25.814;2023-10-31T03:18:10;99963.53;;;1.89;100.00
59650;BME280;46162;57.568;25.814;2023-10-31T03:20:43;99971.50;;;1.78;100.00
59650;BME280;46162;57.568;25.814;2023-10-31T03:23:14;99973.69;;;1.84;100.00
59650;BME280;46162;57.568;25.814;2023-10-31T03:25:43;99970.63;;;1.78;100.00
59650;BME280;46162;57.568;25.814;2023-10-31T03:28:18;99957.88;;;1.70;100.00
59650;BME280;46162;57.568;25.814;2023-10-31T03:30:51;99950.06;;;1.56;100.00
59650;BME280;46162;57.568;25.814;2023-10-31T03:33:20;99948.19;;;1.45;100.00
59650;BME280;46162;57.568;25.814;2023-10-31T03:35:48;99949.25;;;1.42;100.00
59650;BME280;46162;57.568;25.814;2023-10-31T03:38:17;99955.03;;;1.36;100.00
59650;BME280;46162;57.568;25.814;2023-10-31T03:40:46;99956.31;;;1.31;100.00
59650;BME280;46162;57.568;25.814;2023-10-31T03:43:14;99952.47;;;1.35;100.00
59650;BME280;46162;57.568;25.814;2023-10-31T03:45:45;99949.91;;;1.33;100.00
59650;BME280;46162;57.568;25.814;2023-10-31T03:48:16;99961.44;;;1.21;100.00
59650;BME280;46162;57.568;25.814;2023-10-31T03:50:44;99966.94;;;1.31;100.00
59650;BME280;46162;57.568;25.814;2023-10-31T03:53:13;99960.72;;;1.19;100.00
59650;BME280;46162;57.568;25.814;2023-10-31T03:55:42;99970.34;;;1.33;100.00
59650;BME280;46162;57.568;25.814;2023-10-31T03:58:11;99964.81;;;1.36;100.00
59650;BME280;46162;57.568;25.814;2023-10-31T04:00:40;99970.91;;;1.25;100.00
59650;BME280;46162;57.568;25.814;2023-10-31T04:03:09;99963.72;;;1.38;100.00
59650;BME280;46162;57.568;25.814;2023-10-31T04:05:40;99966.19;;;1.41;100.00
59650;BME280;46162;57.568;25.814;2023-10-31T04:08:09;99976.31;;;1.36;100.00
59650;BME280;46162;57.568;25.814;2023-10-31T04:10:38;99968.16;;;1.26;100.00
59650;BME280;46162;57.568;25.814;2023-10-31T04:13:06;99964.59;;;1.39;100.00
59650;BME280;46162;57.568;25.814;2023-10-31T04:15:35;99962.13;;;1.48;100.00
59650;BME280;46162;57.568;25.814;2023-10-31T04:18:04;99962.69;;;1.65;100.00
59650;BME280;46162;57.568;25.814;2023-10-31T04:20:33;99970.28;;;1.82;100.00
59650;BME280;46162;57.568;25.814;2023-10-31T04:23:03;99960.31;;;1.97;100.00
59650;BME280;46162;57.568;25.814;2023-10-31T04:25:33;99957.22;;;2.14;100.00
59650;BME280;46162;57.568;25.814;2023-10-31T04:28:01;99956.69;;;2.33;100.00
59650;BME280;46162;57.568;25.814;2023-10-31T04:30:30;99954.75;;;2.47;100.00
59650;BME280;46162;57.568;25.814;2023-10-31T04:32:58;99951.63;;;2.64;100.00
59650;BME280;46162;57.568;25.814;2023-10-31T04:35:27;99954.09;;;2.67;100.00
59650;BME280;46162;57.568;25.814;2023-10-31T04:37:56;99946.34;;;2.75;100.00
59650;BME280;46162;57.568;25.814;2023-10-31T04:40:27;99957.72;;;2.89;100.00
59650;BME280;46162;57.568;25.814;2023-10-31T04:42:56;99958.22;;;2.94;100.00
59650;BME280;46162;57.568;25.814;2023-10-31T04:45:25;99948.75;;;3.12;100.00
59650;BME280;46162;57.568;25.814;2023-10-31T04:47:53;99949.97;;;3.08;100.00
59650;BME280;46162;57.568;25.814;2023-10-31T04:50:22;99951.44;;;3.12;100.00
59650;BME280;46162;57.568;25.814;2023-10-31T04:52:51;99939.41;;;3.29;100.00
59650;BME280;46162;57.568;25.814;2023-10-31T04:55:20;99944.50;;;3.32;100.00
59650;BME280;46162;57.568;25.814;2023-10-31T04:57:51;99945.34;;;3.44;100.00
59650;BME280;46162;57.568;25.814;2023-10-31T05:00:20;99944.09;;;3.48;100.00
59650;BME280;46162;57.568;25.814;2023-10-31T05:02:48;99949.03;;;3.64;100.00
59650;BME280;46162;57.568;25.814;2023-10-31T05:05:17;99947.22;;;3.64;100.00
59650;BME280;46162;57.568;25.814;2023-10-31T05:07:47;99942.53;;;3.89;100.00
59650;BME280;46162;57.568;25.814;2023-10-31T05:10:15;99946.75;;;3.92;100.00
59650;BME280;46162;57.568;25.814;2023-10-31T05:12:44;99946.66;;;3.93;100.00
59650;BME280;46162;57.568;25.814;2023-10-31T05:15:15;99947.34;;;3.95;100.00
59650;BME280;46162;57.568;25.814;2023-10-31T05:17:44;99954.41;;;3.96;100.00
59650;BME280;46162;57.568;25.814;2023-10-31T05:20:13;99957.47;;;4.13;100.00
59650;BME280;46162;57.568;25.814;2023-10-31T05:22:42;99950.06;;;4.16;100.00
59650;BME280;46162;57.568;25.814;2023-10-31T05:25:11;99961.09;;;4.23;100.00
59650;BME280;46162;57.568;25.814;2023-10-31T05:27:40;99950.25;;;4.24;100.00
59650;BME280;46162;57.568;25.814;2023-10-31T05:30:10;99952.28;;;4.32;100.00
59650;BME280;46162;57.568;25.814;2023-10-31T05:32:41;99957.13;;;4.38;100.00
59650;BME280;46162;57.568;25.814;2023-10-31T05:35:10;99948.88;;;4.30;100.00
59650;BME280;46162;57.568;25.814;2023-10-31T05:37:39;99953.91;;;4.44;100.00
59650;BME280;46162;57.568;25.814;2023-10-31T05:40:09;99953.91;;;4.65;100.00
59650;BME280;46162;57.568;25.814;2023-10-31T05:42:38;99965.28;;;4.58;100.00
59650;BME280;46162;57.568;25.814;2023-10-31T05:45:09;99966.69;;;4.62;100.00
59650;BME280;46162;57.568;25.814;2023-10-31T05:47:38;99967.34;;;4.54;100.00
59650;BME280;46162;57.568;25.814;2023-10-31T05:50:09;99968.63;;;4.60;100.00
59650;BME280;46162;57.568;25.814;2023-10-31T05:52:39;99961.06;;;4.65;100.00
59650;BME280;46162;57.568;25.814;2023-10-31T05:55:08;99965.56;;;4.64;100.00
59650;BME280;46162;57.568;25.814;2023-10-31T05:57:38;99963.56;;;4.78;100.00
59650;BME280;46162;57.568;25.814;2023-10-31T06:00:07;99960.59;;;4.81;100.00
59650;BME280;46162;57.568;25.814;2023-10-31T06:02:39;99966.41;;;4.86;100.00
59650;BME280;46162;57.568;25.814;2023-10-31T06:05:10;99971.53;;;4.99;100.00
59650;BME280;46162;57.568;25.814;2023-10-31T06:07:39;99978.47;;;5.11;100.00
59650;BME280;46162;57.568;25.814;2023-10-31T06:10:09;99978.38;;;5.12;100.00
59650;BME280;46162;57.568;25.814;2023-10-31T06:12:39;99977.81;;;5.18;100.00
59650;BME280;46162;57.568;25.814;2023-10-31T06:15:09;99973.28;;;5.19;100.00
59650;BME280;46162;57.568;25.814;2023-10-31T06:17:38;99961.50;;;5.31;100.00
59650;BME280;46162;57.568;25.814;2023-10-31T06:20:10;99960.38;;;5.24;100.00
59650;BME280;46162;57.568;25.814;2023-10-31T06:22:39;99961.72;;;5.49;100.00
59650;BME280;46162;57.568;25.814;2023-10-31T06:25:08;99945.25;;;5.54;100.00
59650;BME280;46162;57.568;25.814;2023-10-31T06:27:37;99931.28;;;5.50;100.00
59650;BME280;46162;57.568;25.814;2023-10-31T06:30:07;99928.28;;;5.44;100.00
59650;BME280;46162;57.568;25.814;2023-10-31T06:32:50;99920.44;;;5.52;100.00
59650;BME280;46162;57.568;25.814;2023-10-31T06:35:22;99920.44;;;5.52;100.00
59650;BME280;46162;57.568;25.814;2023-10-31T06:37:54;99902.28;;;5.65;100.00
59650;BME280;46162;57.568;25.814;2023-10-31T06:40:24;99896.91;;;5.65;100.00
59650;BME280;46162;57.568;25.814;2023-10-31T06:42:52;99898.75;;;5.84;100.00
59650;BME280;46162;57.568;25.814;2023-10-31T06:45:21;99896.94;;;5.75;100.00
59650;BME280;46162;57.568;25.814;2023-10-31T06:47:50;99896.78;;;5.76;100.00
59650;BME280;46162;57.568;25.814;2023-10-31T06:50:20;99900.16;;;5.78;100.00
59650;BME280;46162;57.568;25.814;2023-10-31T06:52:50;99905.78;;;5.75;100.00
59650;BME280;46162;57.568;25.814;2023-10-31T06:55:18;99895.94;;;5.76;100.00
59650;BME280;46162;57.568;25.814;2023-10-31T06:57:47;99896.09;;;5.84;100.00
59650;BME280;46162;57.568;25.814;2023-10-31T07:00:17;99896.09;;;5.84;100.00
59650;BME280;46162;57.568;25.814;2023-10-31T07:02:46;99877.19;;;5.86;100.00
59650;BME280;46162;57.568;25.814;2023-10-31T07:05:14;99882.31;;;5.98;100.00
59650;BME280;46162;57.568;25.814;2023-10-31T07:07:46;99875.22;;;5.97;100.00
59650;BME280;46162;57.568;25.814;2023-10-31T07:10:15;99877.50;;;6.02;100.00
59650;BME280;46162;57.568;25.814;2023-10-31T07:12:44;99873.25;;;6.09;100.00
59650;BME280;46162;57.568;25.814;2023-10-31T07:15:13;99882.25;;;6.08;100.00
59650;BME280;46162;57.568;25.814;2023-10-31T07:17:42;99872.84;;;6.04;100.00
59650;BME280;46162;57.568;25.814;2023-10-31T07:20:10;99870.72;;;6.08;100.00
59650;BME280;46162;57.568;25.814;2023-10-31T07:22:39;99870.69;;;6.27;100.00
59650;BME280;46162;57.568;25.814;2023-10-31T07:25:10;99863.22;;;6.31;100.00
59650;BME280;46162;57.568;25.814;2023-10-31T07:27:39;99856.25;;;6.38;100.00
59650;BME280;46162;57.568;25.814;2023-10-31T07:30:08;99860.66;;;6.39;100.00
59650;BME280;46162;57.568;25.814;2023-10-31T07:32:38;99853.88;;;6.35;100.00
59650;BME280;46162;57.568;25.814;2023-10-31T07:35:07;99854.88;;;6.34;100.00
59650;BME280;46162;57.568;25.814;2023-10-31T07:37:37;99853.31;;;6.41;100.00
59650;BME280;46162;57.568;25.814;2023-10-31T07:40:08;99848.91;;;6.40;100.00
59650;BME280;46162;57.568;25.814;2023-10-31T07:42:38;99844.66;;;6.47;100.00
59650;BME280;46162;57.568;25.814;2023-10-31T07:45:08;99843.69;;;6.48;100.00
59650;BME280;46162;57.568;25.814;2023-10-31T07:47:38;99842.38;;;6.52;100.00
59650;BME280;46162;57.568;25.814;2023-10-31T07:50:08;99845.78;;;6.54;100.00
59650;BME280;46162;57.568;25.814;2023-10-31T07:52:37;99844.63;;;6.57;100.00
59650;BME280;46162;57.568;25.814;2023-10-31T07:55:06;99845.78;;;6.54;100.00
59650;BME280;46162;57.568;25.814;2023-10-31T07:57:43;99840.13;;;6.47;100.00
59650;BME280;46162;57.568;25.814;2023-10-31T08:00:12;99835.63;;;6.58;100.00
59650;BME280;46162;57.568;25.814;2023-10-31T08:02:41;99820.66;;;6.55;100.00
59650;BME280;46162;57.568;25.814;2023-10-31T08:05:11;99820.94;;;6.52;100.00
59650;BME280;46162;57.568;25.814;2023-10-31T08:07:40;99816.13;;;6.56;100.00
59650;BME280;46162;57.568;25.814;2023-10-31T08:10:10;99812.91;;;6.80;100.00
59650;BME280;46162;57.568;25.814;2023-10-31T08:12:38;99814.44;;;6.82;100.00
59650;BME280;46162;57.568;25.814;2023-10-31T08:15:10;99806.16;;;6.76;100.00
59650;BME280;46162;57.568;25.814;2023-10-31T08:17:38;99798.13;;;6.76;100.00
59650;BME280;46162;57.568;25.814;2023-10-31T08:20:08;99795.13;;;6.79;100.00
59650;BME280;46162;57.568;25.814;2023-10-31T08:22:38;99798.50;;;6.81;100.00
59650;BME280;46162;57.568;25.814;2023-10-31T08:25:09;99786.56;;;6.93;100.00
59650;BME280;46162;57.568;25.814;2023-10-31T08:27:41;99779.50;;;6.92;100.00
59650;BME280;46162;57.568;25.814;2023-10-31T08:30:12;99776.81;;;6.92;100.00
59650;BME280;46162;57.568;25.814;2023-10-31T08:32:41;99775.53;;;6.96;100.00
59650;BME280;46162;57.568;25.814;2023-10-31T08:35:10;99768.97;;;7.08;100.00
59650;BME280;46162;57.568;25.814;2023-10-31T08:37:39;99761.44;;;7.12;100.00
59650;BME280;46162;57.568;25.814;2023-10-31T08:40:08;99762.00;;;7.16;100.00
59650;BME280;46162;57.568;25.814;2023-10-31T08:42:37;99759.63;;;7.13;100.00
59650;BME280;46162;57.568;25.814;2023-10-31T08:45:07;99745.56;;;7.19;100.00
59650;BME280;46162;57.568;25.814;2023-10-31T08:47:38;99743.19;;;7.16;100.00
59650;BME280;46162;57.568;25.814;2023-10-31T08:50:07;99739.44;;;7.26;100.00
59650;BME280;46162;57.568;25.814;2023-10-31T08:52:37;99732.31;;;7.35;100.00
59650;BME280;46162;57.568;25.814;2023-10-31T08:55:06;99724.25;;;7.35;100.00
59650;BME280;46162;57.568;25.814;2023-10-31T08:57:35;99712.25;;;7.47;100.00
59650;BME280;46162;57.568;25.814;2023-10-31T09:00:06;99708.09;;;7.53;100.00
59650;BME280;46162;57.568;25.814;2023-10-31T09:02:35;99705.28;;;7.54;100.00
59650;BME280;46162;57.568;25.814;2023-10-31T09:05:05;99696.19;;;7.56;100.00
59650;BME280;46162;57.568;25.814;2023-10-31T09:07:34;99702.41;;;7.56;100.00
59650;BME280;46162;57.568;25.814;2023-10-31T09:10:04;99689.34;;;7.61;100.00
59650;BME280;46162;57.568;25.814;2023-10-31T09:12:33;99687.81;;;7.59;100.00
59650;BME280;46162;57.568;25.814;2023-10-31T09:15:02;99686.94;;;7.76;100.00
59650;BME280;46162;57.568;25.814;2023-10-31T09:17:31;99691.47;;;7.75;100.00
59650;BME280;46162;57.568;25.814;2023-10-31T09:20:00;99687.56;;;7.70;100.00
59650;BME280;46162;57.568;25.814;2023-10-31T09:22:31;99688.28;;;7.72;100.00
59650;BME280;46162;57.568;25.814;2023-10-31T09:24:59;99683.69;;;7.64;100.00
59650;BME280;46162;57.568;25.814;2023-10-31T09:27:29;99693.56;;;7.64;100.00
59650;BME280;46162;57.568;25.814;2023-10-31T09:29:59;99697.69;;;7.76;100.00
59650;BME280;46162;57.568;25.814;2023-10-31T09:32:28;99702.88;;;7.69;100.00
59650;BME280;46162;57.568;25.814;2023-10-31T09:34:57;99687.22;;;7.65;100.00
59650;BME280;46162;57.568;25.814;2023-10-31T09:37:26;99672.41;;;7.61;100.00
59650;BME280;46162;57.568;25.814;2023-10-31T09:39:56;99668.78;;;7.70;100.00
59650;BME280;46162;57.568;25.814;2023-10-31T09:42:25;99654.59;;;7.60;100.00
59650;BME280;46162;57.568;25.814;2023-10-31T09:44:54;99645.53;;;7.61;100.00
59650;BME280;46162;57.568;25.814;2023-10-31T09:47:22;99622.00;;;7.54;100.00
59650;BME280;46162;57.568;25.814;2023-10-31T09:49:51;99623.63;;;7.47;100.00
59650;BME280;46162;57.568;25.814;2023-10-31T09:52:22;99613.94;;;7.54;100.00
59650;BME280;46162;57.568;25.814;2023-10-31T09:54:52;99606.56;;;7.57;100.00
59650;BME280;46162;57.568;25.814;2023-10-31T09:57:23;99586.03;;;7.47;100.00
59650;BME280;46162;57.568;25.814;2023-10-31T09:59:53;99576.47;;;7.45;100.00
59650;BME280;46162;57.568;25.814;2023-10-31T10:02:22;99556.03;;;7.52;100.00
59650;BME280;46162;57.568;25.814;2023-10-31T10:04:51;99563.06;;;7.53;100.00
59650;BME280;46162;57.568;25.814;2023-10-31T10:07:22;99558.84;;;7.50;100.00
59650;BME280;46162;57.568;25.814;2023-10-31T10:09:56;99551.38;;;7.62;100.00
59650;BME280;46162;57.568;25.814;2023-10-31T10:12:32;99549.78;;;7.51;100.00
59650;BME280;46162;57.568;25.814;2023-10-31T10:15:01;99533.88;;;7.58;100.00
59650;BME280;46162;57.568;25.814;2023-10-31T10:17:30;99531.34;;;7.57;100.00
59650;BME280;46162;57.568;25.814;2023-10-31T10:20:08;99525.84;;;7.66;100.00
59650;BME280;46162;57.568;25.814;2023-10-31T10:22:38;99511.34;;;7.51;100.00
59650;BME280;46162;57.568;25.814;2023-10-31T10:25:08;99511.91;;;7.63;100.00
59650;BME280;46162;57.568;25.814;2023-10-31T10:27:40;99496.34;;;7.74;100.00
59650;BME280;46162;57.568;25.814;2023-10-31T10:30:10;99472.97;;;7.67;100.00
59650;BME280;46162;57.568;25.814;2023-10-31T10:32:39;99461.22;;;7.60;100.00
59650;BME280;46162;57.568;25.814;2023-10-31T10:35:08;99458.88;;;7.65;100.00
59650;BME280;46162;57.568;25.814;2023-10-31T10:37:38;99441.41;;;7.69;100.00
59650;BME280;46162;57.568;25.814;2023-10-31T10:40:08;99439.75;;;7.76;100.00
59650;BME280;46162;57.568;25.814;2023-10-31T10:42:44;99428.69;;;7.79;100.00
59650;BME280;46162;57.568;25.814;2023-10-31T10:45:15;99417.06;;;7.70;100.00
59650;BME280;46162;57.568;25.814;2023-10-31T10:47:49;99409.50;;;7.66;100.00
59650;BME280;46162;57.568;25.814;2023-10-31T10:50:19;99403.44;;;7.64;100.00
59650;BME280;46162;57.568;25.814;2023-10-31T10:52:52;99387.31;;;7.64;100.00
59650;BME280;46162;57.568;25.814;2023-10-31T10:55:25;99382.97;;;7.71;100.00
59650;BME280;46162;57.568;25.814;2023-10-31T10:58:04;99380.44;;;7.61;100.00
59650;BME280;46162;57.568;25.814;2023-10-31T11:00:34;99394.75;;;7.62;100.00
59650;BME280;46162;57.568;25.814;2023-10-31T11:03:04;99396.91;;;7.66;100.00
59650;BME280;46162;57.568;25.814;2023-10-31T11:05:35;99383.31;;;7.68;100.00
59650;BME280;46162;57.568;25.814;2023-10-31T11:08:04;99387.72;;;7.77;100.00
59650;BME280;46162;57.568;25.814;2023-10-31T11:10:34;99385.34;;;7.82;100.00
59650;BME280;46162;57.568;25.814;2023-10-31T11:13:06;99375.09;;;7.86;100.00
59650;BME280;46162;57.568;25.814;2023-10-31T11:15:35;99371.59;;;7.77;100.00
59650;BME280;46162;57.568;25.814;2023-10-31T11:18:05;99359.47;;;7.73;100.00
59650;BME280;46162;57.568;25.814;2023-10-31T11:20:35;99350.25;;;7.84;100.00
59650;BME280;46162;57.568;25.814;2023-10-31T11:23:05;99335.63;;;7.78;100.00
59650;BME280;46162;57.568;25.814;2023-10-31T11:25:42;99320.00;;;7.73;100.00
59650;BME280;46162;57.568;25.814;2023-10-31T11:28:13;99307.91;;;7.61;100.00
59650;BME280;46162;57.568;25.814;2023-10-31T11:30:43;99300.03;;;7.76;100.00
59650;BME280;46162;57.568;25.814;2023-10-31T11:33:12;99273.19;;;7.68;100.00
59650;BME280;46162;57.568;25.814;2023-10-31T11:35:42;99270.50;;;7.68;100.00
59650;BME280;46162;57.568;25.814;2023-10-31T11:38:12;99259.09;;;7.74;100.00
59650;BME280;46162;57.568;25.814;2023-10-31T11:40:58;99234.72;;;7.75;100.00
59650;BME280;46162;57.568;25.814;2023-10-31T11:43:52;99241.28;;;7.73;100.00
59650;BME280;46162;57.568;25.814;2023-10-31T11:46:23;99225.16;;;7.73;100.00
59650;BME280;46162;57.568;25.814;2023-10-31T11:48:55;99215.41;;;7.64;100.00
59650;BME280;46162;57.568;25.814;2023-10-31T11:51:24;99208.56;;;7.69;100.00
59650;BME280;46162;57.568;25.814;2023-10-31T11:53:53;99185.53;;;7.75;100.00
59650;BME280;46162;57.568;25.814;2023-10-31T11:56:22;99184.84;;;7.73;100.00
59650;BME280;46162;57.568;25.814;2023-10-31T11:59:01;99192.25;;;7.79;100.00
59650;BME280;46162;57.568;25.814;2023-10-31T12:01:31;99189.56;;;7.79;100.00
59650;BME280;46162;57.568;25.814;2023-10-31T12:04:00;99175.13;;;7.72;100.00
59650;BME280;46162;57.568;25.814;2023-10-31T12:06:34;99162.50;;;7.89;100.00
59650;BME280;46162;57.568;25.814;2023-10-31T12:09:03;99142.34;;;7.85;100.00
59650;BME280;46162;57.568;25.814;2023-10-31T12:11:32;99133.31;;;7.78;100.00
59650;BME280;46162;57.568;25.814;2023-10-31T12:14:03;99131.44;;;7.86;100.00
59650;BME280;46162;57.568;25.814;2023-10-31T12:16:33;99123.75;;;7.75;100.00
59650;BME280;46162;57.568;25.814;2023-10-31T12:19:03;99132.78;;;7.82;100.00
59650;BME280;46162;57.568;25.814;2023-10-31T12:21:37;99123.38;;;7.86;100.00
59650;BME280;46162;57.568;25.814;2023-10-31T12:24:08;99106.28;;;7.79;100.00
59650;BME280;46162;57.568;25.814;2023-10-31T12:26:37;99097.66;;;7.84;100.00
59650;BME280;46162;57.568;25.814;2023-10-31T12:29:09;99085.78;;;7.86;100.00
59650;BME280;46162;57.568;25.814;2023-10-31T12:31:45;99091.47;;;7.83;100.00
59650;BME280;46162;57.568;25.814;2023-10-31T12:34:15;99063.59;;;7.84;100.00
59650;BME280;46162;57.568;25.814;2023-10-31T12:36:46;99086.75;;;7.85;100.00
59650;BME280;46162;57.568;25.814;2023-10-31T12:39:16;99075.50;;;7.90;100.00
59650;BME280;46162;57.568;25.814;2023-10-31T12:41:46;99072.66;;;7.83;100.00
59650;BME280;46162;57.568;25.814;2023-10-31T12:44:22;99071.66;;;7.84;100.00
59650;BME280;46162;57.568;25.814;2023-10-31T12:46:52;99063.56;;;7.92;100.00
59650;BME280;46162;57.568;25.814;2023-10-31T12:49:21;99057.34;;;7.92;100.00
59650;BME280;46162;57.568;25.814;2023-10-31T12:51:57;99055.50;;;7.92;100.00
59650;BME280;46162;57.568;25.814;2023-10-31T12:54:28;99042.00;;;8.09;100.00
59650;BME280;46162;57.568;25.814;2023-10-31T12:56:59;99033.94;;;8.01;100.00
59650;BME280;46162;57.568;25.814;2023-10-31T12:59:30;99036.94;;;8.06;100.00
59650;BME280;46162;57.568;25.814;2023-10-31T13:01:59;99031.94;;;8.03;100.00
59650;BME280;46162;57.568;25.814;2023-10-31T13:04:29;99020.50;;;8.01;100.00